Flight Track Log - Related Links

Times and Time Zones

All times are in EDT time to prevent confusion due to time zone crossing. See the FIV602 flight status page for this flight to view local times or setup timezone preferences in your user account.

Time Position Orientation Groundspeed Altitude Reporting Facility
EDT Latitude Longitude Course Direction KTS MPH feet Rate Location/Type
Thu 08:34:58 AM 35.1025 -79.7097 223° Southwest 122 140 9,100  Level Washington Center
Thu 08:35:58 AM 35.0808 -79.7342 223° Southwest 122 140 9,500 496 Climbing Washington Center
Thu 08:36:59 AM 35.0522 -79.7708 226° Southwest 122 140 10,100 496 Climbing Washington Center
Thu 08:37:59 AM 35.0450 -79.8033 255° West 122 140 10,500 180 Climbing Washington Center
Thu 08:39:12 AM 35.0450 -79.8567 270° West 139 160 10,500 45 Level Washington Center
Thu 08:40:12 AM 35.0517 -79.9050 280° West 134 154 10,600  Climbing Washington Center
Thu 08:41:10 AM 35.0356 -79.9475 245° Southwest 126 145 10,500  Descending Washington Center
Thu 08:42:11 AM 35.0194 -79.9872 244° Southwest 126 145 10,600 98 Climbing Washington Center
Thu 08:44:00 AM 34.9874 -80.0576 241° Southwest  Level FlightAware Approximate
Thu 08:51:00 AM 34.8786 -80.3378 244° Southwest  Level FlightAware Approximate
Thu 08:52:00 AM 34.8628 -80.3777 244° Southwest  Level FlightAware Approximate
Thu 08:53:00 AM 34.8471 -80.4175 244° Southwest  Level FlightAware Approximate
Thu 08:54:00 AM 34.8313 -80.4574 244° Southwest  Level FlightAware Approximate
Thu 08:55:00 AM 34.8156 -80.4972 244° Southwest  Level FlightAware Approximate
Thu 08:56:00 AM 34.7998 -80.5370 244° Southwest  Level FlightAware Approximate
Thu 08:57:00 AM 34.7840 -80.5768 244° Southwest  Level FlightAware Approximate
Thu 08:58:00 AM 34.7682 -80.6166 244° Southwest  Level FlightAware Approximate
Thu 08:59:00 AM 34.7524 -80.6564 244° Southwest  Level FlightAware Approximate
Thu 09:00:00 AM 34.7365 -80.6962 244° Southwest  Level FlightAware Approximate
Thu 09:01:00 AM 34.7207 -80.7359 244° Southwest  Level FlightAware Approximate
Thu 09:02:00 AM 34.7048 -80.7756 244° Southwest  Level FlightAware Approximate
Thu 09:03:00 AM 34.6890 -80.8153 244° Southwest  Level FlightAware Approximate
Thu 09:04:00 AM 34.6731 -80.8550 244° Southwest  Level FlightAware Approximate
Thu 09:05:00 AM 34.6572 -80.8947 244° Southwest  Level FlightAware Approximate
Thu 09:06:00 AM 34.6413 -80.9343 244° Southwest  Level FlightAware Approximate
Thu 09:07:00 AM 34.6254 -80.9740 244° Southwest  Level FlightAware Approximate
Thu 09:08:00 AM 34.6094 -81.0136 244° Southwest  Level FlightAware Approximate
Thu 09:09:00 AM 34.5935 -81.0533 244° Southwest  Level FlightAware Approximate
Thu 09:10:00 AM 34.5775 -81.0928 244° Southwest  Level FlightAware Approximate
Thu 09:11:00 AM 34.5616 -81.1324 244° Southwest  Level FlightAware Approximate
Thu 09:12:00 AM 34.5456 -81.1720 244° Southwest  Level FlightAware Approximate
Thu 09:13:00 AM 34.5296 -81.2116 244° Southwest  Level FlightAware Approximate
Thu 09:14:00 AM 34.5136 -81.2511 244° Southwest  Level FlightAware Approximate
Thu 09:15:00 AM 34.4975 -81.2906 244° Southwest  Level FlightAware Approximate
Thu 09:16:00 AM 34.4815 -81.3301 244° Southwest  Level FlightAware Approximate
Thu 09:17:00 AM 34.4654 -81.3696 243° Southwest  Level FlightAware Approximate
Thu 09:18:00 AM 34.4487 -81.4087 243° Southwest  Level FlightAware Approximate
Thu 09:19:00 AM 34.4320 -81.4478 243° Southwest  Level FlightAware Approximate
Thu 09:20:00 AM 34.4152 -81.4868 243° Southwest  Level FlightAware Approximate
Thu 09:21:00 AM 34.3985 -81.5259 243° Southwest  Level FlightAware Approximate
Thu 09:22:00 AM 34.3818 -81.5649 243° Southwest  Level FlightAware Approximate
Thu 09:23:00 AM 34.3650 -81.6039 243° Southwest  Level FlightAware Approximate
Thu 09:24:00 AM 34.3486 -81.6432 243° Southwest  Level FlightAware Approximate
Thu 09:25:00 AM 34.3322 -81.6824 243° Southwest  Level FlightAware Approximate
Thu 09:26:00 AM 34.3158 -81.7216 243° Southwest  Level FlightAware Approximate
Thu 09:27:00 AM 34.2994 -81.7608 243° Southwest  Level FlightAware Approximate
Thu 09:28:00 AM 34.2829 -81.7999 243° Southwest  Level FlightAware Approximate
Thu 09:29:00 AM 34.2665 -81.8391 243° Southwest  Level FlightAware Approximate
Thu 09:30:00 AM 34.2500 -81.8782 243° Southwest  Level FlightAware Approximate
Thu 09:31:00 AM 34.2335 -81.9173 243° Southwest  Level FlightAware Approximate
Thu 09:32:00 AM 34.2170 -81.9565 243° Southwest  Level FlightAware Approximate
Thu 09:33:00 AM 34.2005 -81.9955 243° Southwest  Level FlightAware Approximate
Thu 09:34:00 AM 34.1840 -82.0346 243° Southwest  Level FlightAware Approximate
Thu 09:35:00 AM 34.1675 -82.0737 243° Southwest  Level FlightAware Approximate
Thu 09:36:00 AM 34.1509 -82.1127 243° Southwest  Level FlightAware Approximate
Thu 09:37:00 AM 34.1344 -82.1518 243° Southwest  Level FlightAware Approximate
Thu 09:38:00 AM 34.1178 -82.1908 243° Southwest  Level FlightAware Approximate
Thu 09:39:00 AM 34.1012 -82.2298 243° Southwest  Level FlightAware Approximate
Thu 09:40:00 AM 34.0846 -82.2688 243° Southwest  Level FlightAware Approximate
Thu 09:41:00 AM 34.0680 -82.3077 243° Southwest  Level FlightAware Approximate
Thu 09:42:00 AM 34.0514 -82.3467 243° Southwest  Level FlightAware Approximate
Thu 09:43:00 AM 34.0350 -82.3858 243° Southwest  Level FlightAware Approximate
Thu 09:44:00 AM 34.0187 -82.4249 243° Southwest  Level FlightAware Approximate
Thu 09:45:00 AM 34.0023 -82.4640 243° Southwest  Level FlightAware Approximate
Thu 09:46:00 AM 33.9859 -82.5031 243° Southwest  Level FlightAware Approximate
Thu 09:47:00 AM 33.9695 -82.5421 243° Southwest  Level FlightAware Approximate
Thu 09:48:00 AM 33.9531 -82.5812 243° Southwest  Level FlightAware Approximate
Thu 09:49:00 AM 33.9367 -82.6202 243° Southwest  Level FlightAware Approximate
Thu 09:50:00 AM 33.9203 -82.6592 243° Southwest  Level FlightAware Approximate
Thu 09:51:00 AM 33.9038 -82.6982 243° Southwest  Level FlightAware Approximate
Thu 09:52:00 AM 33.8874 -82.7372 243° Southwest  Level FlightAware Approximate
Thu 09:53:00 AM 33.8709 -82.7762 243° Southwest  Level FlightAware Approximate
Thu 09:54:00 AM 33.8544 -82.8151 243° Southwest  Level FlightAware Approximate
Thu 09:55:00 AM 33.8379 -82.8540 243° Southwest  Level FlightAware Approximate
Thu 09:56:00 AM 33.8214 -82.8930 243° Southwest  Level FlightAware Approximate
Thu 09:57:00 AM 33.8049 -82.9319 243° Southwest  Level FlightAware Approximate
Thu 09:58:00 AM 33.7884 -82.9708 243° Southwest  Level FlightAware Approximate
Thu 09:59:00 AM 33.7719 -83.0097 243° Southwest  Level FlightAware Approximate
Thu 10:00:00 AM 33.7553 -83.0485 243° Southwest  Level FlightAware Approximate
Thu 10:01:00 AM 33.7387 -83.0873 243° Southwest  Level FlightAware Approximate
Thu 10:02:00 AM 33.7216 -83.1258 241° Southwest  Level FlightAware Approximate
Thu 10:03:00 AM 33.7043 -83.1642 241° Southwest  Level FlightAware Approximate
Thu 10:04:00 AM 33.6869 -83.2025 241° Southwest  Level FlightAware Approximate
Thu 10:05:00 AM 33.6696 -83.2408 241° Southwest  Level FlightAware Approximate
Thu 10:06:00 AM 33.6522 -83.2791 241° Southwest  Level FlightAware Approximate
Thu 10:07:00 AM 33.6348 -83.3173 241° Southwest  Level FlightAware Approximate
Thu 10:08:00 AM 33.6174 -83.3556 241° Southwest  Level FlightAware Approximate
Thu 10:09:00 AM 33.5999 -83.3938 241° Southwest  Level FlightAware Approximate
Thu 10:10:00 AM 33.5825 -83.4320 241° Southwest  Level FlightAware Approximate
Thu 10:11:00 AM 33.5649 -83.4702 239° Southwest  Level FlightAware Approximate
Thu 10:12:00 AM 33.5500 -83.5088 270° West  Level FlightAware Approximate
Thu 10:13:00 AM 33.5347 -83.5472 239° Southwest  Level FlightAware Approximate
Thu 10:14:00 AM 33.5160 -83.5846 239° Southwest  Level FlightAware Approximate
Thu 10:15:00 AM 33.4974 -83.6219 239° Southwest  Level FlightAware Approximate
Thu 10:16:00 AM 33.4787 -83.6592 239° Southwest  Level FlightAware Approximate
Thu 10:17:00 AM 33.4615 -83.6975 247° West  Level FlightAware Approximate
Thu 10:18:00 AM 33.4470 -83.7374 246° West  Level FlightAware Approximate
Thu 10:19:00 AM 33.4325 -83.7773 246° West  Level FlightAware Approximate
Thu 10:20:00 AM 33.4180 -83.8171 246° West  Level FlightAware Approximate
Thu 10:21:00 AM 33.4035 -83.8570 246° West  Level FlightAware Approximate
Thu 10:22:00 AM 33.3868 -83.8956 241° Southwest  Level FlightAware Approximate
Thu 10:23:00 AM 33.3694 -83.9337 241° Southwest  Level FlightAware Approximate
Thu 10:24:00 AM 33.3520 -83.9718 241° Southwest  Level FlightAware Approximate
Thu 10:25:00 AM 33.3346 -84.0100 241° Southwest  Level FlightAware Approximate
Thu 10:26:00 AM 33.3171 -84.0481 241° Southwest  Level FlightAware Approximate
Thu 10:27:00 AM 33.2997 -84.0861 241° Southwest  Level FlightAware Approximate
Thu 10:28:00 AM 33.2822 -84.1242 241° Southwest  Level FlightAware Approximate
Thu 10:29:00 AM 33.2647 -84.1623 241° Southwest  Level FlightAware Approximate
Thu 10:30:00 AM 33.2472 -84.2003 241° Southwest  Level FlightAware Approximate
Thu 10:31:00 AM 33.2297 -84.2383 241° Southwest  Level FlightAware Approximate
Thu 10:32:00 AM 33.2167 -84.2667 241° Southwest  Level FlightAware Approximate
Thu 10:33:00 AM 33.2270 -84.2749 241° Southwest  Level Estimated
Thu 10:34:00 AM 33.2270 -84.2749 241° Southwest  Level Estimated
Thu 10:35:00 AM 33.2270 -84.2749 241° Southwest  Level Estimated
Thu 10:36:00 AM 33.2270 -84.2749 241° Southwest  Level Estimated
Thu 10:37:00 AM 33.2270 -84.2749 241° Southwest  Level Estimated
Thu 10:38:00 AM 33.2270 -84.2749 241° Southwest  Level Estimated
Thu 10:39:00 AM 33.2270 -84.2749 241° Southwest  Level Estimated
Thu 10:40:00 AM 33.2270 -84.2749 241° Southwest  Level Estimated
Thu 10:41:00 AM 33.2270 -84.2749 241° Southwest  Level Estimated
Thu 10:42:00 AM 33.2270 -84.2749 241° Southwest  Level Estimated
Thu 10:43:00 AM 33.2270 -84.2749 241° Southwest  Level Estimated
Thu 10:44:00 AM 33.2270 -84.2749 241° Southwest  Level Estimated
Thu 10:45:00 AM 33.2270 -84.2749 241° Southwest  Level Estimated
Thu 10:46:00 AM 33.2270 -84.2749 241° Southwest  Level Estimated
Thu 10:47:00 AM 33.2270 -84.2749 241° Southwest  Level Estimated
Thu 10:48:00 AM 33.2270 -84.2749 241° Southwest  Level Estimated
Thu 10:49:00 AM 33.2270 -84.2749 241° Southwest  Level Estimated
Thu 10:50:00 AM 33.2270 -84.2749 241° Southwest  Level Estimated
Thu 10:51:00 AM 33.2270 -84.2749 241° Southwest  Level Estimated
Thu 10:52:00 AM 33.2270 -84.2749 241° Southwest  Level Estimated
Thu 10:53:00 AM 33.2270 -84.2749 241° Southwest  Level Estimated
Thu 10:54:00 AM 33.2270 -84.2749 241° Southwest  Level Estimated
Thu 10:55:00 AM 33.2270 -84.2749 241° Southwest  Level Estimated
Thu 10:56:00 AM 33.2270 -84.2749 241° Southwest  Level Estimated
Thu 10:57:00 AM 33.2270 -84.2749 241° Southwest  Level Estimated
Thu 10:58:00 AM 33.2270 -84.2749 241° Southwest  Level Estimated
Thu 10:59:00 AM 33.2270 -84.2749 241° Southwest  Level Estimated
Thu 11:00:00 AM 33.2270 -84.2749 241° Southwest  Level Estimated
Thu 11:01:00 AM 33.2270 -84.2749 241° Southwest  Level Estimated
Thu 11:02:00 AM 33.2270 -84.2749 241° Southwest  Level Estimated
Thu 11:03:00 AM 33.2270 -84.2749 241° Southwest  Level Estimated
Thu 11:04:00 AM 33.2270 -84.2749 241° Southwest  Level Estimated
Thu 11:05:00 AM 33.2270 -84.2749 241° Southwest  Level Estimated
Thu 11:06:00 AM 33.2270 -84.2749 241° Southwest  Level Estimated
Thu 11:07:00 AM 33.2270 -84.2749 241° Southwest  Level Estimated
Thu 11:08:00 AM 33.2270 -84.2749 241° Southwest  Level Estimated
Thu 11:09:00 AM 33.2270 -84.2749 241° Southwest  Level Estimated
Thu 11:10:00 AM 33.2270 -84.2749 241° Southwest  Level Estimated
Thu 11:11:00 AM 33.2270 -84.2749 241° Southwest  Level Estimated
Thu 11:12:00 AM 33.2270 -84.2749 241° Southwest  Level Estimated
Thu 11:13:00 AM 33.2270 -84.2749 241° Southwest  Level Estimated
Thu 11:14:00 AM 33.2270 -84.2749 241° Southwest  Level Estimated
Thu 11:15:00 AM 33.2270 -84.2749 241° Southwest  Level Estimated
Thu 11:16:00 AM 33.2270 -84.2749 241° Southwest  Level Estimated
Thu 11:17:00 AM 33.2270 -84.2749 241° Southwest  Level Estimated
Thu 11:18:00 AM 33.2270 -84.2749 241° Southwest  Level Estimated
Thu 11:19:00 AM 33.2270 -84.2749 241° Southwest  Level Estimated
Thu 11:20:00 AM 33.2270 -84.2749 241° Southwest  Level Estimated
Thu 11:21:00 AM 33.2270 -84.2749 241° Southwest  Level Estimated

Login

Don't have an account? Register now (free) for customized features, flight alerts, and more!